Notice: Undefined index: language in /home/u908952976/domains/airgaviota-va.com/public_html/vam/index.php on line 25
AirGaviota-VA

... VIRTUAL FLIGHT...OUR PASSION



 METAR AND TAF INFORMATION

Deprecated: The each() function is deprecated. This message will be suppressed on further calls in /home/u908952976/domains/airgaviota-va.com/public_html/vam/helpers/get_metar.php on line 20
METAR FOR LHDC
ADDS - METARS form results

(0938 UTC 09 March 2021)
Data provider http://aviationweather.gov/metar/data/
 
METAR text: LHDC 090915Z AUTO 01009KT 340V040 CAVOK 04/M08 Q1021 NOSIG
Conditions at: LHDC (DEBRECEN AIRPORT, HU) observed 0915 UTC 09 March 2021
Temperature: 4.0°C (39°F)
Dewpoint: -8.0°C (18°F) [RH = 41%]
Pressure (altimeter): 30.15 inches Hg (1021.0 mb)
Winds: from the N (10 degrees) at 10 MPH (9 knots; 4.6 m/s)
Visibility: 6 or more miles (10+ km)
Ceiling: ceiling and visibility are OK
Clouds: unknown
Weather: no significant weather observed at this time

METAR text: LHDC 090845Z AUTO 03011KT 340V060 CAVOK 03/M08 Q1021 NOSIG
Conditions at: LHDC (DEBRECEN AIRPORT, HU) observed 0845 UTC 09 March 2021
Temperature: 3.0°C (37°F)
Dewpoint: -8.0°C (18°F) [RH = 44%]
Pressure (altimeter): 30.15 inches Hg (1021.0 mb)
Winds: from the NNE (30 degrees) at 13 MPH (11 knots; 5.7 m/s)
Visibility: 6 or more miles (10+ km)
Ceiling: ceiling and visibility are OK
Clouds: unknown
Weather: no significant weather observed at this time

Forecast for: LHDC (DEBRECEN AIRPORT, HU)
Text: TAF LHDC 090815Z 0909/0918 03008KT CAVOK
Forecast period: 0900 to 1800 UTC 09 March 2021
Forecast type: FROM: standard forecast or significant change
Winds: from the NNE (30 degrees) at 9 MPH (8 knots; 4.1 m/s)
Visibility: 6 or more miles (10+ km)
Ceiling: unknown
Clouds: missing
Weather: NSW  (no significant weather)

 AIRPORT MAP

 RUNWAY INFORMATION
Runway 05L Runway length 8087 ft Runway width 230 ft
Runway elevation 0 ft Runway displaced threshold 0 ft Runway heading 48
Runway 23R Runway length 8087 ft Runway width 230 ft
Runway elevation 0 ft Runway displaced threshold 0 ft Runway heading 228
Runway 05R Runway length 8196 ft Runway width 131 ft
Runway elevation 355 ft Runway displaced threshold 0 ft Runway heading 48
Runway 23L Runway length 8196 ft Runway width 131 ft
Runway elevation 359 ft Runway displaced threshold 979 ft Runway heading 228

 AIRPORT FREQUENCIES
Type AFIS Name INFO Frequency 125.9 MHZ
Type INFO Name BUDAPEST I Frequency 133.3 MHZ

 AIRPORT NEAR NAVIGATION AIDS
Type NDB Name Debrecen Frequency 326 KHZ
Type NDB Name Debrecen Frequency 295 KHZ